createdAt,value
2022-09-27T00:00:02.625Z,7.67
2022-09-27T00:01:02.657Z,7.5
2022-09-27T00:02:02.699Z,7.11
2022-09-27T00:03:02.697Z,7.39
2022-09-27T00:04:02.623Z,7.78
2022-09-27T00:05:02.613Z,7.67
2022-09-27T00:06:02.648Z,7.67
2022-09-27T00:07:02.615Z,7.67
2022-09-27T00:08:02.622Z,7.78
2022-09-27T00:09:02.626Z,7.5
2022-09-27T00:10:02.625Z,7.67
2022-09-27T00:11:02.629Z,7.39
2022-09-27T00:12:02.631Z,7.5
2022-09-27T00:13:02.633Z,7.22
2022-09-27T00:14:02.627Z,7.5
2022-09-27T00:15:02.631Z,7.94
2022-09-27T00:16:02.702Z,7.67
2022-09-27T00:17:02.632Z,7.67
2022-09-27T00:18:02.632Z,7.67
2022-09-27T00:19:02.633Z,7.5
2022-09-27T00:20:02.630Z,7.67
2022-09-27T00:21:02.638Z,7.67
2022-09-27T00:22:02.663Z,7.67
2022-09-27T00:23:02.630Z,7.5
2022-09-27T00:24:02.640Z,7.5
2022-09-27T00:25:02.647Z,7.39
2022-09-27T00:26:02.642Z,7.5
2022-09-27T00:27:02.644Z,7.5
2022-09-27T00:28:02.651Z,7.67
2022-09-27T00:29:02.646Z,7.67
2022-09-27T00:30:02.644Z,7.5
2022-09-27T00:31:02.718Z,7.67
2022-09-27T00:32:02.642Z,7.5
2022-09-27T00:33:02.644Z,7.39
2022-09-27T00:34:02.645Z,7.5
2022-09-27T00:35:02.644Z,7.5
2022-09-27T00:36:02.645Z,7.5
2022-09-27T00:37:02.647Z,7.5
2022-09-27T00:38:02.672Z,7.39
2022-09-27T00:39:02.651Z,7.22
2022-09-27T00:40:02.657Z,7.5
2022-09-27T00:41:02.723Z,7.67
2022-09-27T00:42:02.655Z,7.5
2022-09-27T00:43:02.656Z,7.5
2022-09-27T00:44:02.652Z,7.5
2022-09-27T00:45:02.659Z,7.39
2022-09-27T00:46:02.684Z,7.39
2022-09-27T00:47:02.654Z,7.5
2022-09-27T00:48:02.640Z,7.39
2022-09-27T00:49:02.652Z,7.67
2022-09-27T00:50:02.661Z,7.78
2022-09-27T00:51:02.654Z,7.5
2022-09-27T00:52:02.667Z,7.5
2022-09-27T00:53:02.664Z,7.67
2022-09-27T00:54:02.691Z,7.67
2022-09-27T00:55:02.665Z,7.5
2022-09-27T00:56:02.663Z,7.5
2022-09-27T00:57:02.654Z,7.22
2022-09-27T00:58:02.678Z,7.67
2022-09-27T00:59:02.662Z,7.5
2022-09-27T01:00:02.660Z,7.39
2022-09-27T01:01:02.765Z,7.5
2022-09-27T01:02:02.665Z,7.5
2022-09-27T01:03:02.733Z,7.11
2022-09-27T01:04:02.665Z,7.5
2022-09-27T01:05:02.667Z,7.67
2022-09-27T01:06:02.676Z,7.22
2022-09-27T01:07:02.673Z,7.5
2022-09-27T01:08:02.667Z,7.5
2022-09-27T01:09:02.672Z,7.5
2022-09-27T01:10:02.699Z,7.5
2022-09-27T01:11:02.671Z,7.22
2022-09-27T01:12:02.672Z,7.39
2022-09-27T01:13:02.672Z,7.39
2022-09-27T01:14:02.677Z,7.39
2022-09-27T01:15:02.681Z,7.39
2022-09-27T01:16:02.768Z,7.39
2022-09-27T01:17:02.683Z,7.39
2022-09-27T01:18:02.679Z,7.5
2022-09-27T01:19:02.691Z,7.22
2022-09-27T01:20:02.676Z,7.22
2022-09-27T01:21:02.675Z,7.22
2022-09-27T01:22:02.687Z,7.39
2022-09-27T01:23:02.699Z,7.39
2022-09-27T01:24:02.706Z,7.39
2022-09-27T01:25:02.691Z,7.39
2022-09-27T01:26:02.709Z,7.22
2022-09-27T01:27:02.694Z,7.22
2022-09-27T01:28:02.688Z,7.22
2022-09-27T01:29:02.685Z,6.94
2022-09-27T01:30:02.688Z,7.22
2022-09-27T01:31:02.722Z,7.5
2022-09-27T01:32:02.689Z,7.5
2022-09-27T01:33:02.696Z,6.94
2022-09-27T01:34:02.691Z,7.5
2022-09-27T01:35:02.699Z,7.5
2022-09-27T01:36:02.690Z,7.11
2022-09-27T01:37:02.695Z,7.39
2022-09-27T01:38:02.696Z,7.39
2022-09-27T01:39:02.695Z,7.5
2022-09-27T01:40:02.694Z,7.22
2022-09-27T01:41:02.777Z,7.39
2022-09-27T01:42:02.729Z,7.22
2022-09-27T01:43:02.695Z,7.5
2022-09-27T01:44:02.695Z,7.22
2022-09-27T01:45:02.702Z,7.5
2022-09-27T01:46:02.748Z,7.5
2022-09-27T01:47:02.703Z,7.39
2022-09-27T01:48:02.697Z,7.39
2022-09-27T01:49:02.691Z,7.22
2022-09-27T01:50:02.702Z,7.39
2022-09-27T01:51:02.711Z,7.5
2022-09-27T01:52:02.704Z,7.5
2022-09-27T01:53:02.704Z,7.5
2022-09-27T01:54:02.708Z,7.5
2022-09-27T01:55:02.705Z,7.39
2022-09-27T01:56:02.704Z,7.39
2022-09-27T01:57:02.710Z,7.39
2022-09-27T01:58:02.724Z,7.22
2022-09-27T01:59:02.700Z,7.5
2022-09-27T02:00:02.723Z,7.22
2022-09-27T02:01:02.760Z,7.5
2022-09-27T02:02:02.717Z,7.5
2022-09-27T02:03:02.805Z,7.22
2022-09-27T02:04:02.715Z,7.39
2022-09-27T02:05:02.713Z,7.39
2022-09-27T02:06:02.719Z,7.5
2022-09-27T02:07:02.718Z,7.11
2022-09-27T02:08:02.721Z,7.39
2022-09-27T02:09:02.715Z,7.39
2022-09-27T02:10:02.715Z,7.5
2022-09-27T02:11:02.718Z,7.39
2022-09-27T02:12:02.715Z,7.5
2022-09-27T02:13:02.718Z,7.22
2022-09-27T02:14:02.741Z,7.11
2022-09-27T02:15:02.723Z,7.11
2022-09-27T02:16:02.798Z,7.11
2022-09-27T02:17:02.726Z,7.39
2022-09-27T02:18:02.724Z,7.22
2022-09-27T02:19:02.722Z,7.11
2022-09-27T02:20:02.715Z,7.11
2022-09-27T02:21:02.720Z,7.11
2022-09-27T02:22:02.724Z,7.22
2022-09-27T02:23:02.727Z,7.11
2022-09-27T02:24:02.715Z,6.94
2022-09-27T02:25:02.720Z,6.94
2022-09-27T02:26:02.719Z,7.22
2022-09-27T02:27:02.726Z,7.22
2022-09-27T02:28:02.722Z,7.39
2022-09-27T02:29:02.723Z,6.94
2022-09-27T02:30:02.752Z,7.22
2022-09-27T02:31:02.846Z,7.5
2022-09-27T02:32:02.735Z,7.22
2022-09-27T02:33:02.730Z,7.22
2022-09-27T02:34:02.727Z,7.39
2022-09-27T02:35:02.736Z,7.22
2022-09-27T02:36:02.723Z,7.22
2022-09-27T02:37:02.735Z,7.39
2022-09-27T02:38:02.729Z,7.22
2022-09-27T02:39:02.723Z,7.39
2022-09-27T02:40:02.730Z,7.5
2022-09-27T02:41:02.875Z,7.5
2022-09-27T02:42:02.739Z,7.39
2022-09-27T02:43:02.727Z,7.11
2022-09-27T02:44:02.740Z,7.39
2022-09-27T02:45:02.733Z,7.5
2022-09-27T02:46:02.788Z,7.5
2022-09-27T02:47:02.734Z,7.11
2022-09-27T02:48:02.743Z,6.94
2022-09-27T02:49:02.742Z,7.22
2022-09-27T02:50:02.734Z,7.22
2022-09-27T02:51:02.734Z,7.11
2022-09-27T02:52:02.743Z,7.11
2022-09-27T02:53:02.742Z,7.22
2022-09-27T02:54:02.734Z,7.11
2022-09-27T02:55:02.750Z,6.94
2022-09-27T02:56:02.746Z,6.67
2022-09-27T02:57:02.743Z,6.94
2022-09-27T02:58:02.740Z,6.78
2022-09-27T02:59:02.737Z,7.11
2022-09-27T03:00:02.745Z,6.94
2022-09-27T03:01:02.818Z,7.11
2022-09-27T03:02:02.839Z,6.94
2022-09-27T03:03:02.771Z,6.94
2022-09-27T03:04:02.736Z,6.94
2022-09-27T03:05:02.746Z,7.11
2022-09-27T03:06:02.744Z,7.11
2022-09-27T03:07:02.755Z,7.11
2022-09-27T03:08:02.738Z,6.94
2022-09-27T03:09:02.746Z,7.11
2022-09-27T03:10:02.744Z,6.94
2022-09-27T03:11:02.749Z,7.11
2022-09-27T03:12:02.749Z,7.11
2022-09-27T03:13:02.745Z,7.11
2022-09-27T03:14:08.654Z,7.11
2022-09-27T03:15:02.745Z,7.11
2022-09-27T03:16:02.759Z,6.94
2022-09-27T03:17:02.824Z,7.22
2022-09-27T03:18:02.770Z,7.11
2022-09-27T03:19:02.746Z,7.11
2022-09-27T03:20:02.748Z,7.11
2022-09-27T03:21:02.755Z,6.94
2022-09-27T03:22:02.741Z,6.94
2022-09-27T03:23:02.752Z,7.11
2022-09-27T03:24:02.748Z,7.11
2022-09-27T03:25:02.748Z,7.11
2022-09-27T03:26:02.754Z,7.11
2022-09-27T03:27:02.756Z,6.94
2022-09-27T03:28:02.752Z,6.94
2022-09-27T03:29:02.752Z,6.94
2022-09-27T03:30:02.748Z,6.94
2022-09-27T03:31:02.808Z,7.11
2022-09-27T03:32:02.768Z,6.94
2022-09-27T03:33:02.760Z,7.11
2022-09-27T03:34:02.773Z,7.11
2022-09-27T03:35:02.786Z,6.94
2022-09-27T03:36:02.759Z,7.11
2022-09-27T03:37:02.755Z,7.11
2022-09-27T03:38:02.756Z,7.11
2022-09-27T03:39:02.760Z,7.11
2022-09-27T03:40:02.757Z,7.39
2022-09-27T03:41:02.840Z,7.5
2022-09-27T03:42:02.761Z,6.78
2022-09-27T03:43:02.753Z,7.39
2022-09-27T03:44:02.754Z,7.22
2022-09-27T03:45:02.755Z,7.11
2022-09-27T03:46:02.816Z,7.39
2022-09-27T03:47:02.763Z,7.5
2022-09-27T03:48:02.755Z,7.11
2022-09-27T03:49:02.767Z,7.39
2022-09-27T03:50:02.776Z,7.22
2022-09-27T03:51:02.764Z,7.39
2022-09-27T03:52:02.760Z,7.11
2022-09-27T03:53:02.766Z,7.11
2022-09-27T03:54:02.758Z,7.11
2022-09-27T03:55:02.763Z,7.11
2022-09-27T03:56:02.759Z,7.11
2022-09-27T03:57:02.762Z,7.11
2022-09-27T03:58:02.758Z,7.22
2022-09-27T03:59:02.758Z,6.94
2022-09-27T04:00:02.762Z,6.67
2022-09-27T04:01:02.787Z,7.11
2022-09-27T04:02:02.787Z,7.11
2022-09-27T04:03:02.761Z,7.22
2022-09-27T04:04:04.746Z,7.39
2022-09-27T04:05:02.758Z,7.11
2022-09-27T04:06:02.789Z,7.11
2022-09-27T04:07:02.765Z,7.22
2022-09-27T04:08:02.753Z,7.28
2022-09-27T04:09:02.759Z,7.11
2022-09-27T04:10:02.773Z,6.94
2022-09-27T04:11:02.766Z,7.22
2022-09-27T04:12:02.764Z,6.78
2022-09-27T04:13:02.774Z,7.11
2022-09-27T04:14:02.760Z,7.22
2022-09-27T04:15:02.762Z,7.11
2022-09-27T04:16:02.771Z,7.11
2022-09-27T04:17:02.821Z,7.22
2022-09-27T04:18:02.759Z,7.11
2022-09-27T04:19:02.747Z,6.94
2022-09-27T04:20:02.766Z,6.94
2022-09-27T04:21:02.763Z,6.94
2022-09-27T04:22:02.787Z,7.11
2022-09-27T04:23:02.774Z,7.11
2022-09-27T04:24:02.758Z,6.94
2022-09-27T04:25:02.771Z,6.78
2022-09-27T04:26:02.762Z,6.94
2022-09-27T04:27:02.766Z,7.11
2022-09-27T04:28:02.762Z,7.11
2022-09-27T04:29:02.769Z,7.11
2022-09-27T04:30:02.769Z,7.11
2022-09-27T04:31:02.810Z,6.94
2022-09-27T04:32:02.773Z,6.94
2022-09-27T04:33:02.766Z,7.11
2022-09-27T04:34:02.770Z,6.94
2022-09-27T04:35:02.770Z,7.11
2022-09-27T04:36:02.763Z,7.22
2022-09-27T04:37:02.766Z,6.94
2022-09-27T04:38:02.798Z,6.78
2022-09-27T04:39:02.769Z,7.11
2022-09-27T04:40:02.774Z,7.11
2022-09-27T04:41:02.887Z,7.11
2022-09-27T04:42:02.780Z,7.11
2022-09-27T04:43:02.780Z,7.11
2022-09-27T04:44:02.770Z,7.11
2022-09-27T04:45:02.794Z,7.11
2022-09-27T04:46:02.834Z,7.22
2022-09-27T04:47:02.786Z,7.11
2022-09-27T04:48:02.768Z,6.94
2022-09-27T04:49:02.771Z,7.22
2022-09-27T04:50:02.773Z,6.94
2022-09-27T04:51:02.778Z,7.11
2022-09-27T04:52:02.780Z,7.11
2022-09-27T04:53:02.770Z,7.22
2022-09-27T04:54:02.801Z,7.11
2022-09-27T04:55:02.782Z,7.11
2022-09-27T04:56:02.787Z,7.22
2022-09-27T04:57:02.773Z,7.39
2022-09-27T04:58:02.783Z,7.22
2022-09-27T04:59:05.712Z,7.5
2022-09-27T05:00:02.782Z,7.22
2022-09-27T05:01:02.836Z,7.11
2022-09-27T05:02:02.841Z,6.94
2022-09-27T05:03:02.870Z,6.94
2022-09-27T05:04:02.801Z,7.11
2022-09-27T05:05:02.778Z,7.22
2022-09-27T05:06:02.781Z,7.11
2022-09-27T05:07:02.786Z,7.11
2022-09-27T05:08:02.785Z,7.11
2022-09-27T05:09:02.785Z,7.22
2022-09-27T05:10:02.810Z,7.22
2022-09-27T05:11:02.791Z,7.11
2022-09-27T05:12:02.788Z,7.22
2022-09-27T05:13:02.779Z,6.94
2022-09-27T05:14:02.786Z,6.5
2022-09-27T05:15:02.791Z,6.94
2022-09-27T05:16:02.788Z,6.5
2022-09-27T05:17:02.850Z,6.78
2022-09-27T05:18:02.792Z,6.78
2022-09-27T05:19:02.790Z,6.67
2022-09-27T05:20:02.791Z,6.78
2022-09-27T05:21:02.789Z,6.78
2022-09-27T05:22:02.797Z,7.11
2022-09-27T05:23:02.794Z,6.67
2022-09-27T05:24:02.791Z,6.78
2022-09-27T05:25:02.801Z,7.11
2022-09-27T05:26:02.822Z,7.11
2022-09-27T05:27:02.796Z,6.78
2022-09-27T05:28:02.804Z,6.78
2022-09-27T05:29:02.794Z,6.78
2022-09-27T05:30:02.821Z,6.94
2022-09-27T05:31:02.863Z,6.94
2022-09-27T05:32:02.799Z,6.94
2022-09-27T05:33:02.793Z,7.11
2022-09-27T05:34:02.798Z,6.94
2022-09-27T05:35:02.795Z,7.11
2022-09-27T05:36:02.798Z,7.11
2022-09-27T05:37:02.803Z,6.94
2022-09-27T05:38:02.811Z,6.67
2022-09-27T05:39:02.792Z,7.11
2022-09-27T05:40:12.190Z,7.11
2022-09-27T05:41:02.849Z,6.5
2022-09-27T05:42:02.834Z,6.67
2022-09-27T05:43:02.805Z,6.94
2022-09-27T05:44:02.798Z,6.67
2022-09-27T05:45:02.814Z,6.78
2022-09-27T05:46:02.902Z,6.78
2022-09-27T05:47:02.815Z,6.67
2022-09-27T05:48:02.808Z,6.67
2022-09-27T05:49:02.803Z,6.78
2022-09-27T05:50:02.814Z,6.67
2022-09-27T05:51:02.803Z,6.78
2022-09-27T05:52:02.804Z,6.67
2022-09-27T05:53:02.804Z,6.67
2022-09-27T05:54:02.805Z,6.78
2022-09-27T05:55:02.805Z,6.78
2022-09-27T05:56:02.810Z,6.39
2022-09-27T05:57:02.827Z,6.78
2022-09-27T05:58:02.830Z,6.67
2022-09-27T05:59:02.807Z,6.78
2022-09-27T06:00:02.801Z,6.67
2022-09-27T06:01:02.807Z,6.5
2022-09-27T06:02:02.919Z,6.67
2022-09-27T06:03:02.870Z,6.67
2022-09-27T06:04:02.808Z,6.06
2022-09-27T06:05:02.805Z,6.5
2022-09-27T06:06:02.807Z,6.5
2022-09-27T06:07:02.813Z,6.67
2022-09-27T06:08:02.802Z,6.39
2022-09-27T06:09:02.834Z,6.5
2022-09-27T06:10:02.810Z,6.78
2022-09-27T06:11:02.810Z,6.5
2022-09-27T06:12:02.812Z,6.67
2022-09-27T06:13:02.813Z,6.67
2022-09-27T06:14:02.837Z,6.67
2022-09-27T06:15:02.816Z,6.94
2022-09-27T06:16:02.810Z,6.78
2022-09-27T06:17:02.855Z,7.11
2022-09-27T06:18:02.815Z,6.5
2022-09-27T06:19:02.809Z,6.78
2022-09-27T06:20:02.816Z,7.11
2022-09-27T06:21:02.813Z,6.78
2022-09-27T06:22:02.819Z,7.11
2022-09-27T06:23:02.808Z,7.11
2022-09-27T06:24:02.807Z,6.94
2022-09-27T06:25:02.810Z,7.11
2022-09-27T06:26:02.813Z,7.11
2022-09-27T06:27:02.814Z,7.22
2022-09-27T06:28:02.821Z,7.11
2022-09-27T06:29:02.810Z,6.94
2022-09-27T06:30:02.864Z,7.22
2022-09-27T06:31:02.864Z,6.94
2022-09-27T06:32:02.814Z,7.5
2022-09-27T06:33:02.823Z,7.22
2022-09-27T06:34:02.814Z,7.22
2022-09-27T06:35:02.814Z,7.22
2022-09-27T06:36:02.874Z,7.39
2022-09-27T06:37:02.811Z,7.5
2022-09-27T06:38:02.817Z,7.5
2022-09-27T06:39:02.815Z,7.5
2022-09-27T06:40:02.827Z,7.5
2022-09-27T06:41:02.810Z,7.5
2022-09-27T06:42:02.813Z,7.39
2022-09-27T06:43:02.816Z,7.5
2022-09-27T06:44:02.811Z,7.39
2022-09-27T06:45:02.819Z,7.5
2022-09-27T06:46:02.876Z,7.5
2022-09-27T06:47:02.822Z,7.39
2022-09-27T06:48:02.824Z,7.39
2022-09-27T06:49:02.823Z,7.22
2022-09-27T06:50:02.825Z,7.22
2022-09-27T06:51:02.823Z,7.11
2022-09-27T06:52:02.823Z,7.11
2022-09-27T06:53:02.820Z,7.22
2022-09-27T06:54:02.823Z,7.11
2022-09-27T06:55:02.821Z,7.39
2022-09-27T06:56:02.821Z,7.39
2022-09-27T06:57:02.910Z,7.39
2022-09-27T06:58:02.828Z,6.94
2022-09-27T06:59:02.829Z,7.11
2022-09-27T07:00:02.841Z,7.11
2022-09-27T07:01:02.868Z,6.94
2022-09-27T07:02:02.914Z,6.94
2022-09-27T07:03:02.834Z,6.94
2022-09-27T07:04:02.826Z,6.78
2022-09-27T07:05:02.820Z,6.78
2022-09-27T07:06:02.826Z,7.11
2022-09-27T07:07:02.829Z,6.67
2022-09-27T07:08:02.827Z,7.11
2022-09-27T07:09:02.819Z,7.11
2022-09-27T07:10:06.350Z,7.11
2022-09-27T07:11:02.824Z,7.11
2022-09-27T07:12:02.836Z,7.11
2022-09-27T07:13:02.831Z,6.94
2022-09-27T07:14:02.831Z,7.11
2022-09-27T07:15:02.824Z,7.11
2022-09-27T07:16:02.826Z,6.94
2022-09-27T07:17:02.834Z,6.94
2022-09-27T07:18:02.853Z,7.11
2022-09-27T07:19:02.819Z,6.94
2022-09-27T07:20:02.822Z,7.11
2022-09-27T07:21:02.825Z,6.78
2022-09-27T07:22:02.826Z,6.78
2022-09-27T07:23:02.817Z,7.11
2022-09-27T07:24:02.826Z,7.11
2022-09-27T07:25:02.821Z,7.11
2022-09-27T07:26:02.824Z,6.94
2022-09-27T07:27:02.823Z,7.11
2022-09-27T07:28:02.820Z,7.11
2022-09-27T07:29:02.826Z,6.94
2022-09-27T07:30:02.850Z,6.94
2022-09-27T07:31:02.931Z,6.94
2022-09-27T07:32:02.824Z,7.11
2022-09-27T07:33:02.836Z,6.94
2022-09-27T07:34:02.876Z,6.94
2022-09-27T07:35:02.826Z,7.11
2022-09-27T07:36:02.834Z,6.94
2022-09-27T07:37:02.826Z,6.94
2022-09-27T07:38:02.824Z,7.11
2022-09-27T07:39:02.836Z,7.22
2022-09-27T07:40:02.834Z,7.11
2022-09-27T07:41:02.831Z,7.11
2022-09-27T07:42:02.827Z,7.11
2022-09-27T07:43:02.840Z,7.22
2022-09-27T07:44:02.834Z,7.39
2022-09-27T07:45:06.156Z,7.11
2022-09-27T07:46:02.901Z,7.22
2022-09-27T07:47:02.836Z,7.11
2022-09-27T07:48:02.835Z,6.94
2022-09-27T07:49:02.837Z,7.22
2022-09-27T07:50:02.867Z,7.22
2022-09-27T07:51:02.840Z,6.94
2022-09-27T07:52:02.847Z,7.11
2022-09-27T07:53:02.837Z,6.94
2022-09-27T07:54:06.573Z,7.11
2022-09-27T07:55:02.840Z,7.11
2022-09-27T07:56:02.843Z,7.39
2022-09-27T07:57:02.845Z,7.22
2022-09-27T07:58:02.845Z,7.5
2022-09-27T07:59:02.837Z,7.39
2022-09-27T08:00:02.853Z,7.5
2022-09-27T08:01:02.884Z,7.39
2022-09-27T08:02:02.903Z,7.39
2022-09-27T08:03:02.841Z,7.5
2022-09-27T08:04:02.837Z,7.11
2022-09-27T08:05:02.843Z,7.5
2022-09-27T08:06:02.866Z,7.5
2022-09-27T08:07:02.842Z,7.39
2022-09-27T08:08:02.841Z,7.5
2022-09-27T08:09:02.842Z,7.22
2022-09-27T08:10:02.839Z,7.5
2022-09-27T08:11:02.841Z,7.5
2022-09-27T08:12:02.841Z,6.94
2022-09-27T08:13:02.852Z,7.5
2022-09-27T08:14:02.843Z,7.39
2022-09-27T08:15:02.846Z,7.5
2022-09-27T08:16:02.842Z,7.5
2022-09-27T08:17:02.844Z,7.5
2022-09-27T08:18:02.837Z,7.5
2022-09-27T08:19:02.854Z,7.67
2022-09-27T08:20:02.846Z,7.78
2022-09-27T08:21:02.843Z,7.94
2022-09-27T08:22:02.878Z,7.78
2022-09-27T08:23:02.842Z,7.94
2022-09-27T08:24:02.843Z,7.94
2022-09-27T08:25:02.847Z,8.28
2022-09-27T08:26:02.845Z,7.94
2022-09-27T08:27:02.845Z,7.94
2022-09-27T08:28:02.843Z,7.78
2022-09-27T08:29:02.860Z,7.67
2022-09-27T08:30:02.847Z,7.39
2022-09-27T08:31:02.848Z,7.39
2022-09-27T08:32:02.859Z,7.78
2022-09-27T08:33:02.853Z,7.22
2022-09-27T08:34:02.846Z,7.67
2022-09-27T08:35:02.850Z,7.67
2022-09-27T08:36:02.853Z,7.5
2022-09-27T08:37:02.849Z,7.94
2022-09-27T08:38:02.871Z,7.78
2022-09-27T08:39:02.845Z,7.78
2022-09-27T08:40:02.870Z,7.78
2022-09-27T08:41:02.848Z,7.78
2022-09-27T08:42:02.846Z,7.78
2022-09-27T08:43:02.844Z,7.39
2022-09-27T08:44:02.846Z,7.78
2022-09-27T08:45:03.742Z,7.78
2022-09-27T08:46:02.919Z,7.78
2022-09-27T08:47:02.861Z,8.11
2022-09-27T08:48:02.853Z,8.28
2022-09-27T08:49:02.852Z,8.11
2022-09-27T08:50:02.846Z,7.94
2022-09-27T08:51:02.856Z,8.39
2022-09-27T08:52:02.849Z,8.39
2022-09-27T08:53:02.852Z,8.5
2022-09-27T08:54:02.884Z,8.5
2022-09-27T08:55:02.841Z,8.78
2022-09-27T08:56:02.853Z,8.78
2022-09-27T08:57:02.868Z,8.61
2022-09-27T08:58:02.857Z,8.5
2022-09-27T08:59:02.851Z,8.78
2022-09-27T09:00:02.850Z,8.61
2022-09-27T09:01:02.875Z,8.61
2022-09-27T09:02:02.866Z,8.78
2022-09-27T09:03:02.847Z,8.78
2022-09-27T09:04:02.850Z,8.94
2022-09-27T09:05:02.849Z,8.61
2022-09-27T09:06:02.858Z,8.61
2022-09-27T09:07:02.842Z,8.78
2022-09-27T09:08:02.858Z,8.61
2022-09-27T09:09:02.852Z,8.5
2022-09-27T09:10:02.899Z,8.39
2022-09-27T09:11:02.848Z,8.61
2022-09-27T09:12:02.855Z,8.61
2022-09-27T09:13:02.854Z,8.5
2022-09-27T09:14:02.858Z,8.61
2022-09-27T09:15:02.851Z,8.61
2022-09-27T09:16:02.888Z,8.78
2022-09-27T09:17:02.856Z,8.61
2022-09-27T09:18:02.861Z,8.78
2022-09-27T09:19:02.855Z,8.39
2022-09-27T09:20:02.851Z,8.39
2022-09-27T09:21:02.855Z,8.5
2022-09-27T09:22:02.852Z,8.5
2022-09-27T09:23:02.860Z,8.39
2022-09-27T09:24:02.856Z,8.61
2022-09-27T09:25:02.852Z,8.28
2022-09-27T09:26:02.880Z,8.28
2022-09-27T09:27:02.857Z,8.11
2022-09-27T09:28:02.908Z,8.28
2022-09-27T09:29:02.859Z,7.94
2022-09-27T09:30:02.869Z,7.78
2022-09-27T09:31:02.860Z,7.39
2022-09-27T09:32:02.898Z,7.94
2022-09-27T09:33:02.858Z,7.94
2022-09-27T09:34:02.863Z,7.78
2022-09-27T09:35:02.864Z,7.78
2022-09-27T09:36:02.859Z,7.67
2022-09-27T09:37:02.860Z,7.67
2022-09-27T09:38:02.861Z,8.28
2022-09-27T09:39:02.854Z,8.39
2022-09-27T09:40:06.752Z,8.39
2022-09-27T09:41:02.860Z,7.94
2022-09-27T09:42:02.889Z,8.11
2022-09-27T09:43:02.865Z,8.39
2022-09-27T09:44:02.855Z,8.39
2022-09-27T09:45:02.854Z,8.28
2022-09-27T09:46:02.945Z,7.94
2022-09-27T09:47:02.859Z,8.11
2022-09-27T09:48:02.859Z,7.94
2022-09-27T09:49:02.865Z,8.39
2022-09-27T09:50:02.855Z,8.39
2022-09-27T09:51:02.857Z,8.39
2022-09-27T09:52:06.605Z,8.5
2022-09-27T09:53:02.856Z,8.5
2022-09-27T09:54:02.864Z,8.28
2022-09-27T09:55:02.865Z,8.28
2022-09-27T09:56:02.867Z,8.5
2022-09-27T09:57:02.863Z,8.5
2022-09-27T09:58:02.890Z,8.11
2022-09-27T09:59:02.858Z,8.28
2022-09-27T10:00:02.865Z,8.5
2022-09-27T10:01:02.890Z,8.78
2022-09-27T10:02:02.888Z,8.61
2022-09-27T10:03:02.861Z,8.78
2022-09-27T10:04:02.860Z,8.94
2022-09-27T10:05:07.593Z,8.78
2022-09-27T10:06:02.861Z,8.78
2022-09-27T10:07:02.863Z,9.22
2022-09-27T10:08:02.860Z,9.22
2022-09-27T10:09:02.859Z,9.06
2022-09-27T10:10:02.859Z,9.22
2022-09-27T10:11:02.860Z,9.67
2022-09-27T10:12:02.869Z,9.78
2022-09-27T10:13:02.862Z,9.67
2022-09-27T10:14:02.887Z,9.67
2022-09-27T10:15:02.860Z,9.39
2022-09-27T10:16:02.905Z,9.39
2022-09-27T10:17:02.860Z,9.67
2022-09-27T10:18:02.863Z,9.5
2022-09-27T10:19:02.884Z,9.5
2022-09-27T10:20:02.860Z,9.78
2022-09-27T10:21:02.866Z,10.11
2022-09-27T10:22:02.861Z,10.11
2022-09-27T10:23:02.858Z,10.22
2022-09-27T10:24:02.862Z,10.56
2022-09-27T10:25:02.855Z,10.56
2022-09-27T10:26:02.853Z,10.39
2022-09-27T10:27:02.859Z,10.67
2022-09-27T10:28:02.861Z,10.56
2022-09-27T10:29:02.860Z,10.11
2022-09-27T10:30:02.903Z,9.78
2022-09-27T10:31:02.862Z,10.39
2022-09-27T10:32:02.860Z,9.78
2022-09-27T10:33:02.888Z,10.22
2022-09-27T10:34:02.861Z,10.11
2022-09-27T10:35:02.865Z,10.11
2022-09-27T10:36:02.858Z,10.67
2022-09-27T10:37:02.861Z,10.56
2022-09-27T10:38:02.859Z,10.56
2022-09-27T10:39:02.862Z,10.11
2022-09-27T10:40:02.864Z,10.39
2022-09-27T10:41:02.866Z,10.39
2022-09-27T10:42:02.865Z,10.22
2022-09-27T10:43:02.861Z,10.39
2022-09-27T10:44:02.866Z,10.39
2022-09-27T10:45:02.863Z,10.11
2022-09-27T10:46:02.909Z,10.11
2022-09-27T10:47:02.865Z,10.22
2022-09-27T10:48:02.862Z,10.39
2022-09-27T10:49:02.861Z,10.11
2022-09-27T10:50:02.880Z,10.22
2022-09-27T10:51:02.866Z,10.11
2022-09-27T10:52:02.867Z,10.11
2022-09-27T10:53:02.869Z,9.67
2022-09-27T10:54:02.865Z,9.78
2022-09-27T10:55:02.857Z,9.94
2022-09-27T10:56:03.507Z,9.78
2022-09-27T10:57:02.864Z,10.11
2022-09-27T10:58:02.871Z,10.22
2022-09-27T10:59:02.864Z,9.94
2022-09-27T11:00:02.856Z,9.94
2022-09-27T11:01:02.884Z,9.67
2022-09-27T11:02:02.896Z,9.5
2022-09-27T11:03:02.860Z,9.5
2022-09-27T11:04:02.861Z,9.67
2022-09-27T11:05:02.926Z,9.39
2022-09-27T11:06:02.855Z,9.06
2022-09-27T11:07:02.863Z,9.39
2022-09-27T11:08:02.876Z,9.5
2022-09-27T11:09:02.873Z,9.67
2022-09-27T11:10:02.858Z,9.78
2022-09-27T11:11:02.862Z,9.78
2022-09-27T11:12:02.863Z,9.67
2022-09-27T11:13:02.873Z,9.67
2022-09-27T11:14:02.869Z,9.67
2022-09-27T11:15:02.866Z,9.67
2022-09-27T11:16:02.901Z,9.78
2022-09-27T11:17:02.867Z,9.67
2022-09-27T11:18:03.032Z,9.94
2022-09-27T11:19:02.866Z,9.5
2022-09-27T11:20:02.870Z,9.22
2022-09-27T11:21:02.878Z,9.67
2022-09-27T11:22:02.867Z,9.78
2022-09-27T11:23:02.868Z,10.11
2022-09-27T11:24:02.866Z,9.78
2022-09-27T11:25:02.870Z,9.94
2022-09-27T11:26:02.867Z,10.11
2022-09-27T11:27:02.868Z,10.11
2022-09-27T11:28:02.866Z,9.94
2022-09-27T11:29:02.861Z,9.94
2022-09-27T11:30:02.859Z,10.11
2022-09-27T11:31:02.871Z,10.11
2022-09-27T11:32:02.883Z,10.11
2022-09-27T11:33:02.859Z,10.56
2022-09-27T11:34:02.902Z,10.56
2022-09-27T11:35:02.863Z,10.39
2022-09-27T11:36:02.870Z,10.67
2022-09-27T11:37:02.860Z,11.11
2022-09-27T11:38:02.869Z,11.11
2022-09-27T11:39:03.040Z,11.44
2022-09-27T11:40:02.865Z,11.28
2022-09-27T11:41:02.867Z,11
2022-09-27T11:42:02.869Z,11
2022-09-27T11:43:02.871Z,11
2022-09-27T11:44:02.869Z,11.61
2022-09-27T11:46:16.441Z,11.28
2022-09-27T11:47:02.924Z,10.67
2022-09-27T11:48:02.940Z,10.56
2022-09-27T11:49:02.872Z,10.56
2022-09-27T11:50:02.896Z,10.39
2022-09-27T11:51:02.870Z,11
2022-09-27T11:52:02.865Z,10.56
2022-09-27T11:53:02.867Z,10.22
2022-09-27T11:54:02.863Z,10.56
2022-09-27T11:55:02.863Z,10.22
2022-09-27T11:56:02.875Z,10.39
2022-09-27T11:57:02.864Z,9.94
2022-09-27T11:58:02.866Z,9.94
2022-09-27T11:59:02.867Z,9.94
2022-09-27T12:00:02.872Z,10.22
2022-09-27T12:01:02.870Z,10.39
2022-09-27T12:02:02.890Z,10.39
2022-09-27T12:03:02.899Z,10.56
2022-09-27T12:04:02.868Z,10.22
2022-09-27T12:05:02.865Z,10.56
2022-09-27T12:06:07.181Z,10.39
2022-09-27T12:07:02.868Z,10.56
2022-09-27T12:08:02.872Z,10.67
2022-09-27T12:09:02.873Z,11
2022-09-27T12:10:02.859Z,11
2022-09-27T12:11:02.873Z,10.56
2022-09-27T12:12:02.876Z,10.56
2022-09-27T12:13:02.868Z,10.83
2022-09-27T12:14:02.862Z,10.83
2022-09-27T12:15:06.571Z,11.28
2022-09-27T12:16:02.901Z,11.44
2022-09-27T12:17:02.867Z,11
2022-09-27T12:18:02.864Z,11.11
2022-09-27T12:19:02.868Z,11.44
2022-09-27T12:20:02.872Z,10.83
2022-09-27T12:21:02.880Z,10.11
2022-09-27T12:22:02.894Z,10.11
2022-09-27T12:23:02.867Z,9.67
2022-09-27T12:24:02.873Z,9.94
2022-09-27T12:25:02.870Z,9.67
2022-09-27T12:26:02.872Z,9.78
2022-09-27T12:27:02.866Z,9.67
2022-09-27T12:28:02.869Z,9.22
2022-09-27T12:29:02.874Z,9.39
2022-09-27T12:30:02.859Z,9.06
2022-09-27T12:31:27.296Z,8.94
2022-09-27T12:32:02.930Z,9
2022-09-27T12:33:02.868Z,8.61
2022-09-27T12:34:02.867Z,8.5
2022-09-27T12:35:02.872Z,8.17
2022-09-27T12:36:02.865Z,8.17
2022-09-27T12:37:02.876Z,7.72
2022-09-27T12:38:02.896Z,8.17
2022-09-27T12:39:02.872Z,8.33
2022-09-27T12:40:02.871Z,8.44
2022-09-27T12:41:02.924Z,8.61
2022-09-27T12:42:02.880Z,8.61
2022-09-27T12:43:02.875Z,8.44
2022-09-27T12:44:02.873Z,8.61
2022-09-27T12:45:02.875Z,8.67
2022-09-27T12:46:02.877Z,8.67
2022-09-27T12:47:02.925Z,8.67
2022-09-27T12:48:02.873Z,8.67
2022-09-27T12:49:02.872Z,8.94
2022-09-27T12:50:02.865Z,9
2022-09-27T12:51:02.878Z,9.22
2022-09-27T12:52:02.878Z,9.39
2022-09-27T12:53:02.878Z,9.5
2022-09-27T12:54:02.904Z,9.67
2022-09-27T12:55:02.876Z,9.5
2022-09-27T12:56:02.876Z,9.06
2022-09-27T12:57:02.875Z,8.78
2022-09-27T12:58:02.882Z,9.06
2022-09-27T12:59:02.873Z,8.94
2022-09-27T13:00:02.878Z,9.22
2022-09-27T13:01:02.923Z,9.22
2022-09-27T13:02:02.914Z,9.5
2022-09-27T13:03:15.073Z,9.94
2022-09-27T13:04:02.876Z,9.67
2022-09-27T13:05:02.886Z,9.67
2022-09-27T13:06:02.877Z,9.94
2022-09-27T13:07:02.876Z,9.94
2022-09-27T13:08:02.873Z,9.78
2022-09-27T13:09:02.880Z,9.78
2022-09-27T13:10:02.899Z,9.94
2022-09-27T13:11:02.871Z,9.67
2022-09-27T13:12:02.879Z,9.5
2022-09-27T13:13:02.883Z,10.11
2022-09-27T13:14:02.881Z,10.11
2022-09-27T13:15:02.881Z,9.94
2022-09-27T13:16:02.973Z,10.11
2022-09-27T13:17:02.887Z,9.94
2022-09-27T13:18:02.878Z,9.78
2022-09-27T13:19:02.883Z,9.67
2022-09-27T13:20:02.894Z,9.78
2022-09-27T13:21:02.879Z,9.67